sensor_id;sensor_type;location;lat;lon;timestamp;pressure;altitude;pressure_sealevel;temperature;humidity
58775;BME280;44545;47.480;19.024;2022-07-22T03:38:35;100226.72;;;22.48;43.75
58775;BME280;44545;47.480;19.024;2022-07-22T03:41:39;100226.72;;;22.48;43.75
58775;BME280;44545;47.480;19.024;2022-07-22T03:44:41;100241.59;;;22.03;44.38
58775;BME280;44545;47.480;19.024;2022-07-22T03:47:44;100238.88;;;22.00;46.06
58775;BME280;44545;47.480;19.024;2022-07-22T03:50:47;100241.63;;;22.14;44.76
58775;BME280;44545;47.480;19.024;2022-07-22T03:53:51;100232.69;;;22.02;45.60
58775;BME280;44545;47.480;19.024;2022-07-22T03:56:53;100235.38;;;22.07;44.70
58775;BME280;44545;47.480;19.024;2022-07-22T03:59:56;100229.25;;;22.17;43.82
58775;BME280;44545;47.480;19.024;2022-07-22T04:02:58;100246.16;;;22.32;45.54
58775;BME280;44545;47.480;19.024;2022-07-22T04:06:02;100236.44;;;22.40;43.49
58775;BME280;44545;47.480;19.024;2022-07-22T04:09:05;100233.81;;;22.50;44.60
58775;BME280;44545;47.480;19.024;2022-07-22T04:12:08;100234.72;;;22.53;44.06
58775;BME280;44545;47.480;19.024;2022-07-22T04:15:12;100239.19;;;22.70;44.00
58775;BME280;44545;47.480;19.024;2022-07-22T04:18:14;100231.19;;;22.57;45.26
58775;BME280;44545;47.480;19.024;2022-07-22T04:21:19;100225.88;;;22.63;43.89
58775;BME280;44545;47.480;19.024;2022-07-22T04:24:23;100229.56;;;23.05;43.91
58775;BME280;44545;47.480;19.024;2022-07-22T04:27:25;100234.88;;;23.32;43.59
58775;BME280;44545;47.480;19.024;2022-07-22T04:30:27;100232.22;;;23.52;42.81
58775;BME280;44545;47.480;19.024;2022-07-22T04:33:30;100237.50;;;23.62;43.32
58775;BME280;44545;47.480;19.024;2022-07-22T04:36:33;100231.31;;;23.90;43.44
58775;BME280;44545;47.480;19.024;2022-07-22T04:39:36;100225.03;;;23.99;42.67
58775;BME280;44545;47.480;19.024;2022-07-22T04:42:40;100218.75;;;24.26;43.20
58775;BME280;44545;47.480;19.024;2022-07-22T04:45:42;100223.13;;;24.39;42.19
58775;BME280;44545;47.480;19.024;2022-07-22T04:48:44;100218.56;;;24.69;41.40
58775;BME280;44545;47.480;19.024;2022-07-22T04:51:47;100222.72;;;25.04;41.29
58775;BME280;44545;47.480;19.024;2022-07-22T04:54:50;100228.88;;;25.23;42.79
58775;BME280;44545;47.480;19.024;2022-07-22T04:57:52;100227.78;;;25.45;41.12
58775;BME280;44545;47.480;19.024;2022-07-22T05:00:55;100220.56;;;25.55;40.78
58775;BME280;44545;47.480;19.024;2022-07-22T05:03:57;100221.91;;;26.01;40.01
58775;BME280;44545;47.480;19.024;2022-07-22T05:07:00;100214.44;;;26.29;39.51
58775;BME280;44545;47.480;19.024;2022-07-22T05:10:05;100219.47;;;26.50;39.58
58775;BME280;44545;47.480;19.024;2022-07-22T05:13:07;100225.97;;;26.97;38.47
58775;BME280;44545;47.480;19.024;2022-07-22T05:16:10;100220.53;;;27.58;37.19
58775;BME280;44545;47.480;19.024;2022-07-22T05:19:13;100225.84;;;28.07;35.90
58775;BME280;44545;47.480;19.024;2022-07-22T05:22:16;100221.94;;;28.67;33.02
58775;BME280;44545;47.480;19.024;2022-07-22T05:25:18;100223.53;;;29.15;32.57
58775;BME280;44545;47.480;19.024;2022-07-22T05:28:20;100237.09;;;29.45;34.51
58775;BME280;44545;47.480;19.024;2022-07-22T05:31:23;100233.22;;;29.56;35.13
58775;BME280;44545;47.480;19.024;2022-07-22T05:34:26;100233.66;;;29.75;34.80
58775;BME280;44545;47.480;19.024;2022-07-22T05:37:29;100237.53;;;29.96;40.60
58775;BME280;44545;47.480;19.024;2022-07-22T05:40:32;100236.84;;;30.21;33.81
58775;BME280;44545;47.480;19.024;2022-07-22T05:43:34;100228.81;;;30.51;32.98
58775;BME280;44545;47.480;19.024;2022-07-22T05:46:37;100232.50;;;30.76;30.13
58775;BME280;44545;47.480;19.024;2022-07-22T05:49:40;100229.28;;;30.95;29.99
58775;BME280;44545;47.480;19.024;2022-07-22T05:52:46;100230.59;;;31.09;28.10
58775;BME280;44545;47.480;19.024;2022-07-22T05:55:49;100236.41;;;31.24;30.09
58775;BME280;44545;47.480;19.024;2022-07-22T05:58:51;100232.28;;;30.84;25.70
58775;BME280;44545;47.480;19.024;2022-07-22T06:01:54;100239.44;;;31.13;26.39
58775;BME280;44545;47.480;19.024;2022-07-22T06:04:59;100236.47;;;31.49;26.28
58775;BME280;44545;47.480;19.024;2022-07-22T06:08:05;100232.44;;;31.87;25.20
58775;BME280;44545;47.480;19.024;2022-07-22T06:11:08;100240.22;;;31.70;24.73
58775;BME280;44545;47.480;19.024;2022-07-22T06:14:10;100240.84;;;31.53;26.14
58775;BME280;44545;47.480;19.024;2022-07-22T06:17:13;100242.62;;;31.79;25.10
58775;BME280;44545;47.480;19.024;2022-07-22T06:20:15;100243.72;;;31.47;24.83
58775;BME280;44545;47.480;19.024;2022-07-22T06:23:18;100242.25;;;31.10;25.51
58775;BME280;44545;47.480;19.024;2022-07-22T06:26:20;100242.28;;;31.08;25.24
58775;BME280;44545;47.480;19.024;2022-07-22T06:29:23;100243.34;;;31.84;25.51
58775;BME280;44545;47.480;19.024;2022-07-22T06:32:25;100243.81;;;31.97;23.72
58775;BME280;44545;47.480;19.024;2022-07-22T06:35:28;100243.84;;;32.44;23.33
58775;BME280;44545;47.480;19.024;2022-07-22T06:38:31;100239.88;;;33.44;22.42
58775;BME280;44545;47.480;19.024;2022-07-22T06:41:45;100239.16;;;34.02;21.50
58775;BME280;44545;47.480;19.024;2022-07-22T06:44:49;100240.78;;;33.22;21.99
58775;BME280;44545;47.480;19.024;2022-07-22T06:47:53;100236.72;;;32.89;23.49
58775;BME280;44545;47.480;19.024;2022-07-22T06:50:57;100249.59;;;32.11;24.06
58775;BME280;44545;47.480;19.024;2022-07-22T06:54:00;100246.09;;;32.80;23.18
58775;BME280;44545;47.480;19.024;2022-07-22T06:57:02;100243.25;;;32.83;23.14
58775;BME280;44545;47.480;19.024;2022-07-22T07:00:06;100237.16;;;33.44;24.06
58775;BME280;44545;47.480;19.024;2022-07-22T07:03:14;100238.56;;;33.95;22.09
58775;BME280;44545;47.480;19.024;2022-07-22T07:06:37;100235.06;;;34.14;21.89
58775;BME280;44545;47.480;19.024;2022-07-22T07:09:40;100228.06;;;33.87;20.95
58775;BME280;44545;47.480;19.024;2022-07-22T07:12:42;100237.50;;;33.58;23.32
58775;BME280;44545;47.480;19.024;2022-07-22T07:15:45;100231.19;;;32.70;23.05
58775;BME280;44545;47.480;19.024;2022-07-22T07:18:48;100237.19;;;32.54;23.81
58775;BME280;44545;47.480;19.024;2022-07-22T07:21:50;100238.91;;;33.02;22.04
58775;BME280;44545;47.480;19.024;2022-07-22T07:24:53;100241.72;;;33.21;22.11
58775;BME280;44545;47.480;19.024;2022-07-22T07:27:55;100230.75;;;33.69;22.29
58775;BME280;44545;47.480;19.024;2022-07-22T07:30:59;100234.97;;;34.15;19.93
58775;BME280;44545;47.480;19.024;2022-07-22T07:34:02;100228.47;;;34.59;19.89
58775;BME280;44545;47.480;19.024;2022-07-22T07:37:04;100230.41;;;34.55;20.49
58775;BME280;44545;47.480;19.024;2022-07-22T07:40:07;100226.09;;;34.51;19.33
58775;BME280;44545;47.480;19.024;2022-07-22T07:43:11;100225.53;;;34.44;19.43
58775;BME280;44545;47.480;19.024;2022-07-22T07:46:14;100232.91;;;34.79;18.88
58775;BME280;44545;47.480;19.024;2022-07-22T07:49:16;100229.03;;;35.03;18.46
58775;BME280;44545;47.480;19.024;2022-07-22T07:52:19;100223.78;;;35.89;17.99
58775;BME280;44545;47.480;19.024;2022-07-22T07:55:21;100220.13;;;36.88;17.31
58775;BME280;44545;47.480;19.024;2022-07-22T07:58:24;100218.66;;;35.83;17.07
58775;BME280;44545;47.480;19.024;2022-07-22T08:01:26;100219.47;;;35.85;17.72
58775;BME280;44545;47.480;19.024;2022-07-22T08:04:49;100221.94;;;36.40;18.05
58775;BME280;44545;47.480;19.024;2022-07-22T08:07:59;100221.22;;;36.36;17.26
58775;BME280;44545;47.480;19.024;2022-07-22T08:11:02;100220.47;;;36.17;16.81
58775;BME280;44545;47.480;19.024;2022-07-22T08:14:06;100220.63;;;36.31;16.43
58775;BME280;44545;47.480;19.024;2022-07-22T08:17:09;100212.94;;;36.71;16.65
58775;BME280;44545;47.480;19.024;2022-07-22T08:20:11;100212.84;;;36.88;16.18
58775;BME280;44545;47.480;19.024;2022-07-22T08:23:22;100206.94;;;36.33;16.17
58775;BME280;44545;47.480;19.024;2022-07-22T08:26:28;100207.47;;;36.55;16.16
58775;BME280;44545;47.480;19.024;2022-07-22T08:29:33;100217.28;;;35.22;17.50
58775;BME280;44545;47.480;19.024;2022-07-22T08:32:36;100213.56;;;35.05;17.63
58775;BME280;44545;47.480;19.024;2022-07-22T08:35:38;100218.38;;;36.22;17.00
58775;BME280;44545;47.480;19.024;2022-07-22T08:38:41;100214.47;;;36.77;16.36
58775;BME280;44545;47.480;19.024;2022-07-22T08:41:44;100202.78;;;36.59;17.32
58775;BME280;44545;47.480;19.024;2022-07-22T08:44:47;100205.50;;;36.75;17.15
58775;BME280;44545;47.480;19.024;2022-07-22T08:47:51;100201.47;;;36.98;16.33
58775;BME280;44545;47.480;19.024;2022-07-22T08:50:55;100201.19;;;36.86;16.96
58775;BME280;44545;47.480;19.024;2022-07-22T08:53:58;100215.62;;;36.55;16.69
58775;BME280;44545;47.480;19.024;2022-07-22T08:57:01;100204.81;;;36.22;17.12
58775;BME280;44545;47.480;19.024;2022-07-22T09:00:12;100207.72;;;36.51;17.45
58775;BME280;44545;47.480;19.024;2022-07-22T09:03:20;100210.94;;;36.75;16.62
58775;BME280;44545;47.480;19.024;2022-07-22T09:06:26;100208.56;;;37.16;15.99
58775;BME280;44545;47.480;19.024;2022-07-22T09:09:31;100202.16;;;37.92;15.49
58775;BME280;44545;47.480;19.024;2022-07-22T09:12:50;100202.72;;;37.68;15.10
58775;BME280;44545;47.480;19.024;2022-07-22T09:15:54;100193.97;;;38.78;15.16
58775;BME280;44545;47.480;19.024;2022-07-22T09:18:57;100202.72;;;38.97;15.06
58775;BME280;44545;47.480;19.024;2022-07-22T09:21:59;100185.00;;;39.70;13.72
58775;BME280;44545;47.480;19.024;2022-07-22T09:25:37;100180.53;;;40.33;13.19
58775;BME280;44545;47.480;19.024;2022-07-22T09:28:53;100185.78;;;39.85;13.81
58775;BME280;44545;47.480;19.024;2022-07-22T09:32:00;100182.47;;;40.57;13.79
58775;BME280;44545;47.480;19.024;2022-07-22T09:35:05;100183.72;;;40.77;12.81
58775;BME280;44545;47.480;19.024;2022-07-22T09:38:10;100188.97;;;40.30;13.94
58775;BME280;44545;47.480;19.024;2022-07-22T09:41:13;100190.09;;;41.25;12.56
58775;BME280;44545;47.480;19.024;2022-07-22T09:44:21;100180.69;;;43.10;11.72
58775;BME280;44545;47.480;19.024;2022-07-22T09:47:28;100182.09;;;44.61;10.50
58775;BME280;44545;47.480;19.024;2022-07-22T09:50:39;100170.88;;;44.93;9.74
58775;BME280;44545;47.480;19.024;2022-07-22T09:53:42;100176.19;;;46.29;9.16
58775;BME280;44545;47.480;19.024;2022-07-22T09:56:45;100170.25;;;46.97;8.88
58775;BME280;44545;47.480;19.024;2022-07-22T09:59:47;100163.88;;;46.97;9.48
58775;BME280;44545;47.480;19.024;2022-07-22T10:02:59;100158.00;;;48.32;7.89
58775;BME280;44545;47.480;19.024;2022-07-22T10:06:04;100166.84;;;47.57;8.05
58775;BME280;44545;47.480;19.024;2022-07-22T10:09:07;100162.53;;;49.24;7.17
58775;BME280;44545;47.480;19.024;2022-07-22T10:12:17;100158.28;;;50.10;6.86
58775;BME280;44545;47.480;19.024;2022-07-22T10:15:21;100156.31;;;48.98;8.83
58775;BME280;44545;47.480;19.024;2022-07-22T10:18:25;100158.75;;;49.66;8.73
58775;BME280;44545;47.480;19.024;2022-07-22T10:21:31;100144.63;;;51.26;7.55
58775;BME280;44545;47.480;19.024;2022-07-22T10:25:00;100141.13;;;50.55;8.12
58775;BME280;44545;47.480;19.024;2022-07-22T10:28:05;100133.25;;;48.30;9.04
58775;BME280;44545;47.480;19.024;2022-07-22T10:31:22;100139.13;;;47.23;9.99
58775;BME280;44545;47.480;19.024;2022-07-22T10:34:26;100138.84;;;47.08;11.01
58775;BME280;44545;47.480;19.024;2022-07-22T10:40:57;100133.94;;;44.86;12.74
58775;BME280;44545;47.480;19.024;2022-07-22T10:44:01;100127.38;;;43.65;12.72
58775;BME280;44545;47.480;19.024;2022-07-22T10:47:03;100122.16;;;44.74;11.67
58775;BME280;44545;47.480;19.024;2022-07-22T10:50:38;100126.41;;;44.38;12.11
58775;BME280;44545;47.480;19.024;2022-07-22T10:53:44;100121.56;;;43.80;12.29
58775;BME280;44545;47.480;19.024;2022-07-22T10:56:48;100120.16;;;43.64;12.10
58775;BME280;44545;47.480;19.024;2022-07-22T10:59:53;100110.34;;;46.16;10.76
58775;BME280;44545;47.480;19.024;2022-07-22T11:02:56;100108.19;;;47.89;9.69
58775;BME280;44545;47.480;19.024;2022-07-22T11:06:17;100104.97;;;50.63;8.21
58775;BME280;44545;47.480;19.024;2022-07-22T11:09:23;100108.47;;;51.64;7.56
58775;BME280;44545;47.480;19.024;2022-07-22T11:12:33;100109.75;;;51.38;8.10
58775;BME280;44545;47.480;19.024;2022-07-22T11:15:36;100103.62;;;49.72;8.62
58775;BME280;44545;47.480;19.024;2022-07-22T11:18:51;100099.88;;;50.12;8.60
58775;BME280;44545;47.480;19.024;2022-07-22T11:21:57;100097.78;;;49.09;9.26
58775;BME280;44545;47.480;19.024;2022-07-22T11:25:00;100098.50;;;47.93;9.97
58775;BME280;44545;47.480;19.024;2022-07-22T11:28:05;100086.25;;;46.18;11.04
58775;BME280;44545;47.480;19.024;2022-07-22T11:31:09;100088.19;;;44.25;13.57
58775;BME280;44545;47.480;19.024;2022-07-22T11:34:14;100085.53;;;41.78;15.18
